Terminal Aerodrome Forecast
Issued by NWS

Home | Current Version | Previous Version | Text Only | Print | Product List | Glossary On
Versions: 1 2 3 4 5 6 7 8 9 10 11 12 13 14 15 16 17 18 19 20 21 22
000
FTUS44 KBMX 031738
TAFTOI
TAF
KTOI 031738Z 0318/0418 25010G18KT P6SM SCT035 BKN250
     FM040000 20003KT P6SM BKN250
     FM040700 20003KT 5SM BR OVC015
     FM041400 26006KT P6SM BKN035=

USA.gov is the U.S. government's official web portal to all federal, state and local government web resources and services.